sensor_id;sensor_type;location;lat;lon;timestamp;pressure;altitude;pressure_sealevel;temperature;humidity
23574;BME280;11965;53.640;10.050;2023-03-15T00:00:55;100512.38;;;0.10;100.00
23574;BME280;11965;53.640;10.050;2023-03-15T00:03:22;100528.22;;;0.16;100.00
23574;BME280;11965;53.640;10.050;2023-03-15T00:05:50;100528.41;;;0.25;100.00
23574;BME280;11965;53.640;10.050;2023-03-15T00:08:18;100532.91;;;0.35;100.00
23574;BME280;11965;53.640;10.050;2023-03-15T00:10:47;100541.97;;;0.46;100.00
23574;BME280;11965;53.640;10.050;2023-03-15T00:13:15;100538.66;;;0.42;100.00
23574;BME280;11965;53.640;10.050;2023-03-15T00:15:49;100546.56;;;0.45;100.00
23574;BME280;11965;53.640;10.050;2023-03-15T00:18:18;100551.16;;;0.44;100.00
23574;BME280;11965;53.640;10.050;2023-03-15T00:20:45;100554.25;;;0.30;100.00
23574;BME280;11965;53.640;10.050;2023-03-15T00:23:13;100558.50;;;0.23;100.00
23574;BME280;11965;53.640;10.050;2023-03-15T00:25:43;100556.25;;;0.28;100.00
23574;BME280;11965;53.640;10.050;2023-03-15T00:28:11;100555.50;;;0.26;100.00
23574;BME280;11965;53.640;10.050;2023-03-15T00:30:38;100566.19;;;0.39;100.00
23574;BME280;11965;53.640;10.050;2023-03-15T00:33:09;100569.69;;;0.20;100.00
23574;BME280;11965;53.640;10.050;2023-03-15T00:35:40;100571.34;;;0.11;100.00
23574;BME280;11965;53.640;10.050;2023-03-15T00:38:07;100574.41;;;0.18;100.00
23574;BME280;11965;53.640;10.050;2023-03-15T00:40:36;100577.31;;;0.26;100.00
23574;BME280;11965;53.640;10.050;2023-03-15T00:43:03;100574.31;;;0.29;100.00
23574;BME280;11965;53.640;10.050;2023-03-15T00:45:30;100574.41;;;0.18;100.00
23574;BME280;11965;53.640;10.050;2023-03-15T00:47:57;100575.53;;;0.15;100.00
23574;BME280;11965;53.640;10.050;2023-03-15T00:50:26;100587.28;;;0.16;100.00
23574;BME280;11965;53.640;10.050;2023-03-15T00:52:54;100587.72;;;0.11;100.00
23574;BME280;11965;53.640;10.050;2023-03-15T00:55:21;100590.19;;;0.24;100.00
23574;BME280;11965;53.640;10.050;2023-03-15T00:57:48;100593.75;;;0.15;100.00
23574;BME280;11965;53.640;10.050;2023-03-15T01:00:18;100599.13;;;0.05;100.00
23574;BME280;11965;53.640;10.050;2023-03-15T01:02:49;100599.31;;;0.13;100.00
23574;BME280;11965;53.640;10.050;2023-03-15T01:05:16;100601.59;;;0.08;100.00
23574;BME280;11965;53.640;10.050;2023-03-15T01:07:44;100603.63;;;0.37;100.00
23574;BME280;11965;53.640;10.050;2023-03-15T01:10:13;100594.22;;;0.20;100.00
23574;BME280;11965;53.640;10.050;2023-03-15T01:12:40;100595.53;;;0.26;100.00
23574;BME280;11965;53.640;10.050;2023-03-15T01:15:11;100601.16;;;0.34;100.00
23574;BME280;11965;53.640;10.050;2023-03-15T01:17:39;100596.84;;;0.31;100.00
23574;BME280;11965;53.640;10.050;2023-03-15T01:20:07;100599.00;;;0.28;100.00
23574;BME280;11965;53.640;10.050;2023-03-15T01:22:34;100610.41;;;0.42;100.00
23574;BME280;11965;53.640;10.050;2023-03-15T01:25:03;100606.91;;;0.31;100.00
23574;BME280;11965;53.640;10.050;2023-03-15T01:27:30;100606.91;;;0.31;100.00
23574;BME280;11965;53.640;10.050;2023-03-15T01:29:57;100613.59;;;0.48;100.00
23574;BME280;11965;53.640;10.050;2023-03-15T01:32:25;100608.75;;;0.51;100.00
23574;BME280;11965;53.640;10.050;2023-03-15T01:34:56;100613.56;;;0.38;100.00
23574;BME280;11965;53.640;10.050;2023-03-15T01:37:26;100614.50;;;0.58;100.00
23574;BME280;11965;53.640;10.050;2023-03-15T01:39:54;100622.28;;;0.62;100.00
23574;BME280;11965;53.640;10.050;2023-03-15T01:42:22;100623.09;;;0.53;100.00
23574;BME280;11965;53.640;10.050;2023-03-15T01:44:52;100631.81;;;0.47;100.00
23574;BME280;11965;53.640;10.050;2023-03-15T01:47:20;100624.38;;;0.49;100.00
23574;BME280;11965;53.640;10.050;2023-03-15T01:49:57;100626.56;;;0.34;100.00
23574;BME280;11965;53.640;10.050;2023-03-15T01:52:31;100626.16;;;0.39;100.00
23574;BME280;11965;53.640;10.050;2023-03-15T01:55:09;100631.75;;;0.37;100.00
23574;BME280;11965;53.640;10.050;2023-03-15T01:57:49;100637.66;;;0.42;100.00
23574;BME280;11965;53.640;10.050;2023-03-15T02:00:21;100645.38;;;0.37;100.00
23574;BME280;11965;53.640;10.050;2023-03-15T02:02:58;100655.56;;;0.35;100.00
23574;BME280;11965;53.640;10.050;2023-03-15T02:05:34;100659.84;;;0.59;100.00
23574;BME280;11965;53.640;10.050;2023-03-15T02:08:07;100657.28;;;0.57;100.00
23574;BME280;11965;53.640;10.050;2023-03-15T02:10:42;100658.53;;;0.53;100.00
23574;BME280;11965;53.640;10.050;2023-03-15T02:13:15;100649.50;;;0.53;100.00
23574;BME280;11965;53.640;10.050;2023-03-15T02:15:44;100665.00;;;0.52;100.00
23574;BME280;11965;53.640;10.050;2023-03-15T02:18:15;100657.88;;;0.61;100.00
23574;BME280;11965;53.640;10.050;2023-03-15T02:20:52;100673.84;;;0.44;100.00
23574;BME280;11965;53.640;10.050;2023-03-15T02:23:26;100669.25;;;0.45;100.00
23574;BME280;11965;53.640;10.050;2023-03-15T02:26:01;100671.66;;;0.38;100.00
23574;BME280;11965;53.640;10.050;2023-03-15T02:28:34;100676.84;;;0.41;100.00
23574;BME280;11965;53.640;10.050;2023-03-15T02:31:01;100678.44;;;0.44;100.00
23574;BME280;11965;53.640;10.050;2023-03-15T02:33:35;100688.91;;;0.70;100.00
23574;BME280;11965;53.640;10.050;2023-03-15T02:36:08;100674.56;;;0.68;100.00
23574;BME280;11965;53.640;10.050;2023-03-15T02:38:36;100679.66;;;0.82;100.00
23574;BME280;11965;53.640;10.050;2023-03-15T02:41:04;100686.44;;;0.87;100.00
23574;BME280;11965;53.640;10.050;2023-03-15T02:43:35;100689.34;;;0.65;100.00
23574;BME280;11965;53.640;10.050;2023-03-15T02:46:04;100693.72;;;0.56;100.00
23574;BME280;11965;53.640;10.050;2023-03-15T02:48:33;100694.59;;;0.57;100.00
23574;BME280;11965;53.640;10.050;2023-03-15T02:51:01;100707.94;;;0.81;100.00
23574;BME280;11965;53.640;10.050;2023-03-15T02:53:30;100709.28;;;0.65;100.00
23574;BME280;11965;53.640;10.050;2023-03-15T02:55:58;100718.59;;;0.63;100.00
23574;BME280;11965;53.640;10.050;2023-03-15T02:58:25;100719.25;;;0.55;100.00
23574;BME280;11965;53.640;10.050;2023-03-15T03:00:53;100723.31;;;0.61;100.00
23574;BME280;11965;53.640;10.050;2023-03-15T03:03:21;100728.09;;;0.90;100.00
23574;BME280;11965;53.640;10.050;2023-03-15T03:05:47;100721.78;;;0.68;100.00
23574;BME280;11965;53.640;10.050;2023-03-15T03:08:15;100721.78;;;0.68;100.00
23574;BME280;11965;53.640;10.050;2023-03-15T03:10:42;100735.56;;;0.66;100.00
23574;BME280;11965;53.640;10.050;2023-03-15T03:13:08;100737.16;;;0.69;100.00
23574;BME280;11965;53.640;10.050;2023-03-15T03:15:38;100743.41;;;0.81;100.00
23574;BME280;11965;53.640;10.050;2023-03-15T03:18:06;100755.84;;;0.95;100.00
23574;BME280;11965;53.640;10.050;2023-03-15T03:20:33;100763.19;;;0.94;100.00
23574;BME280;11965;53.640;10.050;2023-03-15T03:23:00;100766.38;;;0.78;100.00
23574;BME280;11965;53.640;10.050;2023-03-15T03:25:31;100772.88;;;0.66;100.00
23574;BME280;11965;53.640;10.050;2023-03-15T03:27:58;100784.19;;;0.82;100.00
23574;BME280;11965;53.640;10.050;2023-03-15T03:30:29;100786.91;;;0.82;100.00
23574;BME280;11965;53.640;10.050;2023-03-15T03:32:56;100787.13;;;0.91;100.00
23574;BME280;11965;53.640;10.050;2023-03-15T03:35:24;100785.00;;;0.94;100.00
23574;BME280;11965;53.640;10.050;2023-03-15T03:37:51;100791.22;;;0.64;100.00
23574;BME280;11965;53.640;10.050;2023-03-15T03:40:22;100789.44;;;0.74;100.00
23574;BME280;11965;53.640;10.050;2023-03-15T03:42:49;100806.69;;;0.75;100.00
23574;BME280;11965;53.640;10.050;2023-03-15T03:45:18;100799.63;;;0.72;100.00
23574;BME280;11965;53.640;10.050;2023-03-15T03:47:48;100810.28;;;0.96;100.00
23574;BME280;11965;53.640;10.050;2023-03-15T03:50:16;100817.47;;;0.76;100.00
23574;BME280;11965;53.640;10.050;2023-03-15T03:52:44;100817.41;;;0.87;100.00
23574;BME280;11965;53.640;10.050;2023-03-15T03:55:18;100822.56;;;0.70;100.00
23574;BME280;11965;53.640;10.050;2023-03-15T03:57:50;100830.63;;;0.71;100.00
23574;BME280;11965;53.640;10.050;2023-03-15T04:00:38;100833.44;;;0.81;100.00
23574;BME280;11965;53.640;10.050;2023-03-15T04:03:07;100828.38;;;0.76;100.00
23574;BME280;11965;53.640;10.050;2023-03-15T04:05:36;100833.53;;;0.58;100.00
23574;BME280;11965;53.640;10.050;2023-03-15T04:08:05;100828.53;;;0.42;100.00
23574;BME280;11965;53.640;10.050;2023-03-15T04:10:36;100821.25;;;0.32;100.00
23574;BME280;11965;53.640;10.050;2023-03-15T04:13:03;100826.97;;;0.29;100.00
23574;BME280;11965;53.640;10.050;2023-03-15T04:15:30;100836.91;;;0.18;100.00
23574;BME280;11965;53.640;10.050;2023-03-15T04:17:58;100852.41;;;0.07;100.00
23574;BME280;11965;53.640;10.050;2023-03-15T04:20:31;100852.41;;;0.07;100.00
23574;BME280;11965;53.640;10.050;2023-03-15T04:23:00;100851.31;;;0.09;100.00
23574;BME280;11965;53.640;10.050;2023-03-15T04:25:39;100859.09;;;0.03;100.00
23574;BME280;11965;53.640;10.050;2023-03-15T04:28:31;100864.56;;;-0.09;100.00
23574;BME280;11965;53.640;10.050;2023-03-15T04:31:27;100867.78;;;-0.04;100.00
23574;BME280;11965;53.640;10.050;2023-03-15T04:34:04;100876.47;;;-0.10;100.00
23574;BME280;11965;53.640;10.050;2023-03-15T04:36:50;100871.03;;;-0.21;100.00
23574;BME280;11965;53.640;10.050;2023-03-15T04:39:37;100884.03;;;-0.25;100.00
23574;BME280;11965;53.640;10.050;2023-03-15T04:42:19;100887.13;;;-0.29;100.00
23574;BME280;11965;53.640;10.050;2023-03-15T04:45:06;100891.09;;;-0.33;100.00
23574;BME280;11965;53.640;10.050;2023-03-15T04:47:48;100892.19;;;-0.36;100.00
23574;BME280;11965;53.640;10.050;2023-03-15T04:50:33;100887.84;;;-0.38;100.00
23574;BME280;11965;53.640;10.050;2023-03-15T04:53:26;100886.13;;;-0.39;100.00
23574;BME280;11965;53.640;10.050;2023-03-15T04:56:19;100897.78;;;-0.37;100.00
23574;BME280;11965;53.640;10.050;2023-03-15T04:59:16;100899.00;;;-0.41;100.00
23574;BME280;11965;53.640;10.050;2023-03-15T05:01:45;100896.28;;;-0.41;100.00
23574;BME280;11965;53.640;10.050;2023-03-15T05:04:26;100894.06;;;-0.36;100.00
23574;BME280;11965;53.640;10.050;2023-03-15T05:07:08;100899.16;;;-0.32;100.00
23574;BME280;11965;53.640;10.050;2023-03-15T05:09:54;100905.59;;;-0.21;100.00
23574;BME280;11965;53.640;10.050;2023-03-15T05:12:39;100901.34;;;-0.14;100.00
23574;BME280;11965;53.640;10.050;2023-03-15T05:15:25;100909.66;;;-0.05;100.00
23574;BME280;11965;53.640;10.050;2023-03-15T05:18:10;100921.03;;;0.12;100.00
23574;BME280;11965;53.640;10.050;2023-03-15T05:20:42;100921.91;;;0.12;100.00
23574;BME280;11965;53.640;10.050;2023-03-15T05:23:29;100931.97;;;0.01;100.00
23574;BME280;11965;53.640;10.050;2023-03-15T05:26:15;100934.69;;;0.01;100.00
23574;BME280;11965;53.640;10.050;2023-03-15T05:29:21;100937.78;;;-0.04;100.00
23574;BME280;11965;53.640;10.050;2023-03-15T05:32:10;100945.59;;;-0.11;100.00
23574;BME280;11965;53.640;10.050;2023-03-15T05:35:10;100952.63;;;-0.19;100.00
23574;BME280;11965;53.640;10.050;2023-03-15T05:38:00;100968.84;;;-0.29;100.00
23574;BME280;11965;53.640;10.050;2023-03-15T05:40:49;100973.66;;;-0.33;100.00
23574;BME280;11965;53.640;10.050;2023-03-15T05:43:54;100969.94;;;-0.32;100.00
23574;BME280;11965;53.640;10.050;2023-03-15T05:46:24;100977.75;;;-0.27;100.00
23574;BME280;11965;53.640;10.050;2023-03-15T05:48:55;100982.72;;;-0.21;100.00
23574;BME280;11965;53.640;10.050;2023-03-15T05:51:32;100987.91;;;-0.29;100.00
23574;BME280;11965;53.640;10.050;2023-03-15T05:54:08;100993.59;;;-0.32;100.00
23574;BME280;11965;53.640;10.050;2023-03-15T05:56:48;100992.84;;;-0.34;100.00
23574;BME280;11965;53.640;10.050;2023-03-15T05:59:25;100992.25;;;-0.27;100.00
23574;BME280;11965;53.640;10.050;2023-03-15T06:02:12;100999.31;;;-0.24;100.00
23574;BME280;11965;53.640;10.050;2023-03-15T06:04:49;101017.03;;;-0.18;100.00
23574;BME280;11965;53.640;10.050;2023-03-15T06:07:20;101017.13;;;-0.20;100.00
23574;BME280;11965;53.640;10.050;2023-03-15T06:09:47;101021.22;;;-0.14;100.00
23574;BME280;11965;53.640;10.050;2023-03-15T06:12:14;101022.47;;;-0.07;100.00
23574;BME280;11965;53.640;10.050;2023-03-15T06:14:41;101030.41;;;-0.04;100.00
23574;BME280;11965;53.640;10.050;2023-03-15T06:17:08;101037.97;;;-0.08;100.00
23574;BME280;11965;53.640;10.050;2023-03-15T06:19:35;101031.63;;;-0.08;100.00
23574;BME280;11965;53.640;10.050;2023-03-15T06:22:03;101031.75;;;-0.10;100.00
23574;BME280;11965;53.640;10.050;2023-03-15T06:24:37;101032.38;;;-0.06;100.00
23574;BME280;11965;53.640;10.050;2023-03-15T06:27:04;101038.09;;;0.02;100.00
23574;BME280;11965;53.640;10.050;2023-03-15T06:29:33;101053.09;;;0.08;100.00
23574;BME280;11965;53.640;10.050;2023-03-15T06:32:02;101050.75;;;0.14;100.00
23574;BME280;11965;53.640;10.050;2023-03-15T06:34:29;101044.19;;;0.28;100.00
23574;BME280;11965;53.640;10.050;2023-03-15T06:36:56;101047.41;;;0.22;100.00
23574;BME280;11965;53.640;10.050;2023-03-15T06:39:24;101050.75;;;0.26;100.00
23574;BME280;11965;53.640;10.050;2023-03-15T06:41:51;101057.31;;;0.46;100.00
23574;BME280;11965;53.640;10.050;2023-03-15T06:44:21;101059.16;;;0.56;100.00
23574;BME280;11965;53.640;10.050;2023-03-15T06:46:53;101064.63;;;0.68;100.00
23574;BME280;11965;53.640;10.050;2023-03-15T06:49:21;101067.19;;;0.80;100.00
23574;BME280;11965;53.640;10.050;2023-03-15T06:51:51;101059.03;;;0.92;100.00
23574;BME280;11965;53.640;10.050;2023-03-15T06:54:18;101052.53;;;1.04;100.00
23574;BME280;11965;53.640;10.050;2023-03-15T06:56:46;101057.84;;;1.17;100.00
23574;BME280;11965;53.640;10.050;2023-03-15T06:59:13;101060.81;;;1.14;100.00
23574;BME280;11965;53.640;10.050;2023-03-15T07:01:40;101064.03;;;1.19;100.00
23574;BME280;11965;53.640;10.050;2023-03-15T07:04:07;101062.06;;;1.42;100.00
23574;BME280;11965;53.640;10.050;2023-03-15T07:06:34;101070.38;;;1.51;100.00
23574;BME280;11965;53.640;10.050;2023-03-15T07:09:03;101084.56;;;1.45;100.00
23574;BME280;11965;53.640;10.050;2023-03-15T07:11:31;101081.94;;;1.44;100.00
23574;BME280;11965;53.640;10.050;2023-03-15T07:13:59;101098.81;;;1.49;100.00
23574;BME280;11965;53.640;10.050;2023-03-15T07:16:26;101104.53;;;1.46;100.00
23574;BME280;11965;53.640;10.050;2023-03-15T07:18:53;101125.97;;;1.50;100.00
23574;BME280;11965;53.640;10.050;2023-03-15T07:21:21;101156.31;;;1.36;100.00
23574;BME280;11965;53.640;10.050;2023-03-15T07:23:48;101166.66;;;1.21;100.00
23574;BME280;11965;53.640;10.050;2023-03-15T07:26:15;101181.19;;;1.22;100.00
23574;BME280;11965;53.640;10.050;2023-03-15T07:28:42;101171.16;;;1.11;100.00
23574;BME280;11965;53.640;10.050;2023-03-15T07:31:11;101166.06;;;0.95;100.00
23574;BME280;11965;53.640;10.050;2023-03-15T07:33:38;101168.81;;;0.73;100.00
23574;BME280;11965;53.640;10.050;2023-03-15T07:36:06;101177.00;;;0.73;100.00
23574;BME280;11965;53.640;10.050;2023-03-15T07:38:34;101181.69;;;0.71;100.00
23574;BME280;11965;53.640;10.050;2023-03-15T07:41:02;101182.81;;;0.79;100.00
23574;BME280;11965;53.640;10.050;2023-03-15T07:43:30;101191.50;;;0.84;100.00
23574;BME280;11965;53.640;10.050;2023-03-15T07:46:18;101190.88;;;0.81;100.00
23574;BME280;11965;53.640;10.050;2023-03-15T07:48:45;101189.13;;;0.91;100.00
23574;BME280;11965;53.640;10.050;2023-03-15T07:51:12;101181.69;;;0.93;100.00
23574;BME280;11965;53.640;10.050;2023-03-15T07:53:39;101185.16;;;0.95;100.00
23574;BME280;11965;53.640;10.050;2023-03-15T07:56:06;101180.44;;;1.08;100.00
23574;BME280;11965;53.640;10.050;2023-03-15T07:58:33;101183.19;;;1.08;100.00
23574;BME280;11965;53.640;10.050;2023-03-15T08:01:01;101188.13;;;1.15;100.00
23574;BME280;11965;53.640;10.050;2023-03-15T08:03:29;101182.19;;;1.09;100.00
23574;BME280;11965;53.640;10.050;2023-03-15T08:05:56;101178.59;;;0.86;100.00
23574;BME280;11965;53.640;10.050;2023-03-15T08:08:23;101180.56;;;0.84;100.00
23574;BME280;11965;53.640;10.050;2023-03-15T08:10:50;101182.44;;;0.84;100.00
23574;BME280;11965;53.640;10.050;2023-03-15T08:13:17;101180.69;;;0.83;100.00
23574;BME280;11965;53.640;10.050;2023-03-15T08:15:45;101182.44;;;0.84;100.00
23574;BME280;11965;53.640;10.050;2023-03-15T08:18:13;101187.41;;;0.90;100.00
23574;BME280;11965;53.640;10.050;2023-03-15T08:20:41;101183.69;;;1.02;100.00
23574;BME280;11965;53.640;10.050;2023-03-15T08:23:09;101175.59;;;1.12;100.00
23574;BME280;11965;53.640;10.050;2023-03-15T08:25:41;101182.16;;;1.21;100.00
23574;BME280;11965;53.640;10.050;2023-03-15T08:28:12;101185.00;;;1.30;100.00
23574;BME280;11965;53.640;10.050;2023-03-15T08:30:39;101189.09;;;1.36;100.00
23574;BME280;11965;53.640;10.050;2023-03-15T08:33:07;101208.09;;;1.38;100.00
23574;BME280;11965;53.640;10.050;2023-03-15T08:35:34;101205.22;;;1.39;100.00
23574;BME280;11965;53.640;10.050;2023-03-15T08:38:02;101211.63;;;1.61;100.00
23574;BME280;11965;53.640;10.050;2023-03-15T08:40:30;101216.69;;;1.76;100.00
23574;BME280;11965;53.640;10.050;2023-03-15T08:42:58;101218.16;;;1.92;100.00
23574;BME280;11965;53.640;10.050;2023-03-15T08:45:26;101229.13;;;1.81;100.00
23574;BME280;11965;53.640;10.050;2023-03-15T08:47:54;101233.03;;;1.99;100.00
23574;BME280;11965;53.640;10.050;2023-03-15T08:50:21;101230.59;;;2.17;100.00
23574;BME280;11965;53.640;10.050;2023-03-15T08:52:48;101231.75;;;2.35;100.00
23574;BME280;11965;53.640;10.050;2023-03-15T08:55:16;101233.28;;;2.49;100.00
23574;BME280;11965;53.640;10.050;2023-03-15T08:57:44;101231.28;;;2.93;100.00
23574;BME280;11965;53.640;10.050;2023-03-15T09:00:12;101232.91;;;3.36;100.00
23574;BME280;11965;53.640;10.050;2023-03-15T09:02:42;101251.03;;;3.68;100.00
23574;BME280;11965;53.640;10.050;2023-03-15T09:05:09;101257.56;;;3.86;100.00
23574;BME280;11965;53.640;10.050;2023-03-15T09:07:38;101283.75;;;3.50;100.00
23574;BME280;11965;53.640;10.050;2023-03-15T09:10:08;101273.44;;;3.12;100.00
23574;BME280;11965;53.640;10.050;2023-03-15T09:12:39;101279.16;;;2.57;100.00
23574;BME280;11965;53.640;10.050;2023-03-15T09:15:07;101286.84;;;2.31;100.00
23574;BME280;11965;53.640;10.050;2023-03-15T09:17:35;101293.09;;;2.21;100.00
23574;BME280;11965;53.640;10.050;2023-03-15T09:20:02;101288.31;;;2.03;100.00
23574;BME280;11965;53.640;10.050;2023-03-15T09:22:33;101288.69;;;1.98;100.00
23574;BME280;11965;53.640;10.050;2023-03-15T09:25:00;101294.31;;;1.85;100.00
23574;BME280;11965;53.640;10.050;2023-03-15T09:27:29;101284.75;;;1.80;100.00
23574;BME280;11965;53.640;10.050;2023-03-15T09:29:58;101274.75;;;2.12;100.00
23574;BME280;11965;53.640;10.050;2023-03-15T09:32:25;101269.72;;;2.17;100.00
23574;BME280;11965;53.640;10.050;2023-03-15T09:34:52;101284.25;;;2.29;100.00
23574;BME280;11965;53.640;10.050;2023-03-15T09:37:19;101276.31;;;2.47;100.00
23574;BME280;11965;53.640;10.050;2023-03-15T09:39:46;101273.94;;;2.54;100.00
23574;BME280;11965;53.640;10.050;2023-03-15T09:42:19;101274.88;;;2.64;100.00
23574;BME280;11965;53.640;10.050;2023-03-15T09:44:57;101278.28;;;2.56;100.00
23574;BME280;11965;53.640;10.050;2023-03-15T09:47:43;101288.41;;;2.65;100.00
23574;BME280;11965;53.640;10.050;2023-03-15T09:50:19;101281.03;;;2.56;100.00
23574;BME280;11965;53.640;10.050;2023-03-15T09:52:55;101281.75;;;2.58;100.00
23574;BME280;11965;53.640;10.050;2023-03-15T09:55:25;101285.81;;;2.43;100.00
23574;BME280;11965;53.640;10.050;2023-03-15T09:57:56;101287.41;;;2.46;100.00
23574;BME280;11965;53.640;10.050;2023-03-15T10:00:32;101289.31;;;2.66;100.00
23574;BME280;11965;53.640;10.050;2023-03-15T10:03:03;101294.19;;;2.83;100.00
23574;BME280;11965;53.640;10.050;2023-03-15T10:05:39;101299.97;;;3.11;100.00
23574;BME280;11965;53.640;10.050;2023-03-15T10:08:10;101303.41;;;3.65;100.00
23574;BME280;11965;53.640;10.050;2023-03-15T10:10:46;101298.63;;;4.07;100.00
23574;BME280;11965;53.640;10.050;2023-03-15T10:13:30;101308.13;;;3.93;100.00
23574;BME280;11965;53.640;10.050;2023-03-15T10:16:10;101305.44;;;3.72;100.00
23574;BME280;11965;53.640;10.050;2023-03-15T10:18:53;101297.19;;;3.32;100.00
23574;BME280;11965;53.640;10.050;2023-03-15T10:21:36;101303.25;;;3.26;100.00
23574;BME280;11965;53.640;10.050;2023-03-15T10:24:13;101295.13;;;3.24;100.00
23574;BME280;11965;53.640;10.050;2023-03-15T10:26:42;101297.34;;;3.30;100.00
23574;BME280;11965;53.640;10.050;2023-03-15T10:29:14;101300.47;;;3.57;100.00
23574;BME280;11965;53.640;10.050;2023-03-15T10:31:44;101299.03;;;3.93;100.00
23574;BME280;11965;53.640;10.050;2023-03-15T10:34:15;101291.28;;;4.37;100.00
23574;BME280;11965;53.640;10.050;2023-03-15T10:36:44;101289.41;;;4.37;100.00
23574;BME280;11965;53.640;10.050;2023-03-15T10:39:11;101292.84;;;4.30;100.00
23574;BME280;11965;53.640;10.050;2023-03-15T10:41:41;101291.41;;;4.16;100.00
23574;BME280;11965;53.640;10.050;2023-03-15T10:44:12;101298.41;;;3.89;100.00
23574;BME280;11965;53.640;10.050;2023-03-15T10:46:39;101295.59;;;4.10;100.00
23574;BME280;11965;53.640;10.050;2023-03-15T10:49:11;101303.81;;;4.01;100.00
23574;BME280;11965;53.640;10.050;2023-03-15T10:51:42;101299.81;;;4.53;100.00
23574;BME280;11965;53.640;10.050;2023-03-15T10:54:13;101293.56;;;4.80;100.00
23574;BME280;11965;53.640;10.050;2023-03-15T10:56:45;101309.28;;;5.07;100.00
23574;BME280;11965;53.640;10.050;2023-03-15T10:59:16;101311.09;;;4.79;100.00
23574;BME280;11965;53.640;10.050;2023-03-15T11:01:47;101314.09;;;4.28;100.00
23574;BME280;11965;53.640;10.050;2023-03-15T11:04:17;101316.34;;;3.93;100.00
23574;BME280;11965;53.640;10.050;2023-03-15T11:06:49;101328.53;;;3.70;100.00
23574;BME280;11965;53.640;10.050;2023-03-15T11:09:18;101319.53;;;3.58;100.00
23574;BME280;11965;53.640;10.050;2023-03-15T11:12:00;101322.69;;;3.53;100.00
23574;BME280;11965;53.640;10.050;2023-03-15T11:14:33;101320.22;;;3.50;100.00
23574;BME280;11965;53.640;10.050;2023-03-15T11:17:04;101327.25;;;3.43;100.00
23574;BME280;11965;53.640;10.050;2023-03-15T11:19:36;101331.50;;;3.57;100.00
23574;BME280;11965;53.640;10.050;2023-03-15T11:22:11;101325.19;;;3.66;100.00
23574;BME280;11965;53.640;10.050;2023-03-15T11:24:39;101336.16;;;4.07;100.00
23574;BME280;11965;53.640;10.050;2023-03-15T11:27:11;101343.13;;;4.40;100.00
23574;BME280;11965;53.640;10.050;2023-03-15T11:29:41;101344.28;;;4.37;100.00
23574;BME280;11965;53.640;10.050;2023-03-15T11:32:14;101348.50;;;4.61;100.00
23574;BME280;11965;53.640;10.050;2023-03-15T11:34:47;101336.38;;;4.63;100.00
23574;BME280;11965;53.640;10.050;2023-03-15T11:37:24;101347.50;;;4.72;100.00
23574;BME280;11965;53.640;10.050;2023-03-15T11:39:57;101361.09;;;4.73;100.00
23574;BME280;11965;53.640;10.050;2023-03-15T11:42:32;101354.00;;;4.90;100.00
23574;BME280;11965;53.640;10.050;2023-03-15T11:45:04;101392.16;;;4.54;100.00
23574;BME280;11965;53.640;10.050;2023-03-15T11:47:40;101401.97;;;3.45;100.00
23574;BME280;11965;53.640;10.050;2023-03-15T11:50:13;101397.91;;;3.19;100.00
23574;BME280;11965;53.640;10.050;2023-03-15T11:52:46;101387.75;;;3.09;100.00
23574;BME280;11965;53.640;10.050;2023-03-15T11:55:18;101387.97;;;3.18;100.00
23574;BME280;11965;53.640;10.050;2023-03-15T11:57:46;101379.59;;;3.19;100.00
23574;BME280;11965;53.640;10.050;2023-03-15T12:00:19;101390.28;;;3.43;100.00
23574;BME280;11965;53.640;10.050;2023-03-15T12:02:53;101377.41;;;3.34;100.00
23574;BME280;11965;53.640;10.050;2023-03-15T12:05:42;101374.03;;;3.51;100.00
23574;BME280;11965;53.640;10.050;2023-03-15T12:08:20;101371.47;;;3.60;100.00
23574;BME280;11965;53.640;10.050;2023-03-15T12:10:50;101393.00;;;3.22;100.00
23574;BME280;11965;53.640;10.050;2023-03-15T12:13:22;101384.41;;;3.06;100.00
23574;BME280;11965;53.640;10.050;2023-03-15T12:15:50;101391.22;;;3.12;100.00
23574;BME280;11965;53.640;10.050;2023-03-15T12:18:23;101390.56;;;3.19;100.00
23574;BME280;11965;53.640;10.050;2023-03-15T12:21:05;101372.00;;;3.23;100.00
23574;BME280;11965;53.640;10.050;2023-03-15T12:23:41;101376.09;;;3.38;100.00
23574;BME280;11965;53.640;10.050;2023-03-15T12:26:21;101376.06;;;3.49;100.00
23574;BME280;11965;53.640;10.050;2023-03-15T12:28:52;101376.28;;;3.46;100.00
23574;BME280;11965;53.640;10.050;2023-03-15T12:31:50;101379.97;;;3.57;100.00
23574;BME280;11965;53.640;10.050;2023-03-15T12:34:34;101373.59;;;3.77;100.00
23574;BME280;11965;53.640;10.050;2023-03-15T12:37:06;101379.63;;;3.71;100.00
23574;BME280;11965;53.640;10.050;2023-03-15T12:39:42;101378.34;;;3.75;100.00
23574;BME280;11965;53.640;10.050;2023-03-15T12:45:46;101383.59;;;3.97;100.00
23574;BME280;11965;53.640;10.050;2023-03-15T12:48:24;101379.97;;;3.87;100.00
23574;BME280;11965;53.640;10.050;2023-03-15T12:50:57;101374.78;;;3.84;100.00
23574;BME280;11965;53.640;10.050;2023-03-15T12:53:45;101382.16;;;3.93;100.00
23574;BME280;11965;53.640;10.050;2023-03-15T12:56:33;101388.09;;;3.98;95.75
23574;BME280;11965;53.640;10.050;2023-03-15T12:59:09;101380.03;;;4.07;94.89
23574;BME280;11965;53.640;10.050;2023-03-15T13:01:41;101397.66;;;4.04;96.36
23574;BME280;11965;53.640;10.050;2023-03-15T13:04:09;101395.31;;;3.99;89.75
23574;BME280;11965;53.640;10.050;2023-03-15T13:12:37;101382.66;;;4.18;92.38